createdAt,value
2023-01-31T00:00:20.037Z,76.31
2023-01-31T00:05:24.936Z,76.22
2023-01-31T00:10:28.976Z,76.07
2023-01-31T00:15:33.207Z,76.11
2023-01-31T00:20:37.288Z,76.21
2023-01-31T00:25:41.108Z,76.41
2023-01-31T00:30:45.125Z,76.34
2023-01-31T00:35:48.977Z,76.06
2023-01-31T00:40:55.035Z,75.79
2023-01-31T00:45:59.837Z,76.35
2023-01-31T00:51:04.296Z,76.25
2023-01-31T00:56:15.172Z,76.26
2023-01-31T01:01:23.482Z,76.23
2023-01-31T01:06:29.475Z,76.22
2023-01-31T01:11:35.664Z,76.62
2023-01-31T01:16:41.551Z,76.64
2023-01-31T01:21:46.554Z,76.68
2023-01-31T01:26:50.378Z,77.06
2023-01-31T01:31:54.370Z,76.42
2023-01-31T01:36:58.252Z,76.48
2023-01-31T01:42:02.141Z,76.40
2023-01-31T01:47:06.148Z,76.64
2023-01-31T01:52:13.103Z,76.38
2023-01-31T01:57:25.219Z,76.58
2023-01-31T02:02:29.939Z,76.42
2023-01-31T02:07:34.168Z,76.63
2023-01-31T02:12:38.004Z,76.11
2023-01-31T02:17:42.183Z,76.42
2023-01-31T02:23:27.128Z,76.61
2023-01-31T02:28:53.082Z,76.42
2023-01-31T02:34:05.214Z,76.38
2023-01-31T02:39:39.538Z,76.19
2023-01-31T04:47:57.407Z,74.22
2023-01-31T04:53:01.407Z,75.74
2023-01-31T04:58:06.796Z,76.38
2023-01-31T05:03:11.447Z,76.60
2023-01-31T05:08:15.245Z,77.16
2023-01-31T05:13:18.998Z,77.34
2023-01-31T05:18:22.986Z,77.33
2023-01-31T05:23:26.882Z,77.42
2023-01-31T05:28:31.191Z,76.77
2023-01-31T05:33:36.093Z,76.86
2023-01-31T05:38:40.000Z,77.21
2023-01-31T05:43:43.790Z,76.96
2023-01-31T05:48:47.657Z,76.45
2023-01-31T05:53:52.505Z,76.57
2023-01-31T05:58:56.507Z,76.73
2023-01-31T06:04:00.682Z,76.33
2023-01-31T06:09:04.876Z,76.27
2023-01-31T06:14:10.457Z,76.09
2023-01-31T06:19:14.635Z,76.35
2023-01-31T06:24:18.469Z,75.76
2023-01-31T06:29:22.373Z,75.48
2023-01-31T06:34:26.408Z,75.65
2023-01-31T06:39:30.585Z,75.59
2023-01-31T06:44:34.917Z,75.35
2023-01-31T06:49:38.908Z,75.22
2023-01-31T06:54:43.150Z,75.31
2023-01-31T06:59:47.083Z,75.03
2023-01-31T07:04:50.888Z,74.79
2023-01-31T07:09:54.984Z,75.09
2023-01-31T07:14:58.764Z,74.86
2023-01-31T07:20:02.648Z,75.01
2023-01-31T07:25:08.679Z,75.01
2023-01-31T07:30:13.060Z,74.71
2023-01-31T07:35:17.076Z,74.69
2023-01-31T07:40:21.099Z,75.08
2023-01-31T07:45:25.043Z,74.76
2023-01-31T07:50:29.754Z,74.62
2023-01-31T07:55:34.290Z,74.35
2023-01-31T08:00:56.900Z,74.87
2023-01-31T08:06:19.957Z,74.69
2023-01-31T08:11:23.883Z,74.49
2023-01-31T08:16:28.148Z,74.37
2023-01-31T08:21:31.914Z,74.50
2023-01-31T08:26:36.093Z,74.59
2023-01-31T08:31:42.987Z,74.37
2023-01-31T08:36:46.981Z,74.19
2023-01-31T08:41:50.904Z,74.55
2023-01-31T08:46:55.477Z,74.45
2023-01-31T08:51:59.304Z,74.49
2023-01-31T08:57:03.552Z,74.43
2023-01-31T09:02:08.438Z,74.04
2023-01-31T09:07:12.249Z,74.14
2023-01-31T09:12:16.127Z,74.20
2023-01-31T09:17:20.204Z,73.99
2023-01-31T09:22:24.261Z,73.88
2023-01-31T09:27:29.729Z,74.06
2023-01-31T09:32:33.621Z,73.74
2023-01-31T09:37:37.507Z,74.03
2023-01-31T09:42:45.920Z,74.07
2023-01-31T09:47:51.893Z,74.03
2023-01-31T09:52:58.431Z,73.93
2023-01-31T09:58:07.585Z,73.72
2023-01-31T10:03:40.607Z,73.76
2023-01-31T10:08:59.488Z,73.71
2023-01-31T10:14:14.686Z,73.97
2023-01-31T10:19:27.984Z,74.03
2023-01-31T10:24:45.293Z,74.32
2023-01-31T10:29:56.040Z,74.49
2023-01-31T10:35:05.259Z,74.13
2023-01-31T10:40:23.979Z,74.30
2023-01-31T10:45:34.545Z,74.23
2023-01-31T10:50:59.601Z,74.73
2023-01-31T10:56:11.884Z,74.38
2023-01-31T11:01:16.069Z,74.53
2023-01-31T11:06:21.929Z,74.59
2023-01-31T11:11:29.330Z,74.74
2023-01-31T11:16:38.251Z,74.71
2023-01-31T11:21:42.787Z,75.02
2023-01-31T11:26:54.543Z,75.00
2023-01-31T11:32:00.413Z,75.44
2023-01-31T11:37:24.591Z,74.92
2023-01-31T11:42:29.241Z,74.51
2023-01-31T11:47:42.181Z,74.97
2023-01-31T11:52:46.709Z,74.98
2023-01-31T11:58:01.423Z,75.63
2023-01-31T12:03:09.873Z,75.28
2023-01-31T12:08:30.348Z,74.90
2023-01-31T12:13:51.116Z,75.04
2023-01-31T12:19:30.385Z,75.47
2023-01-31T12:25:05.147Z,75.16
2023-01-31T12:30:50.521Z,75.61
2023-01-31T12:36:17.368Z,75.27
2023-01-31T12:41:32.296Z,74.98
2023-01-31T12:47:10.655Z,75.22
2023-01-31T12:52:36.961Z,74.91
2023-01-31T12:58:04.780Z,75.23
2023-01-31T13:03:24.787Z,75.08
2023-01-31T13:08:34.287Z,75.30
2023-01-31T13:13:56.764Z,75.60
2023-01-31T13:19:15.429Z,75.45
2023-01-31T13:24:24.795Z,75.47
2023-01-31T13:30:00.333Z,74.90
2023-01-31T13:35:19.404Z,75.42
2023-01-31T13:40:30.077Z,75.09
2023-01-31T13:45:39.800Z,75.22
2023-01-31T13:50:49.228Z,75.40
2023-01-31T13:55:54.408Z,75.16
2023-01-31T14:01:24.108Z,74.84
2023-01-31T14:06:56.773Z,75.27
2023-01-31T14:12:23.560Z,75.46
2023-01-31T14:17:30.642Z,76.01
2023-01-31T14:22:35.897Z,75.29
2023-01-31T14:27:48.528Z,75.47
2023-01-31T14:33:10.097Z,75.72
2023-01-31T14:38:32.290Z,75.31
2023-01-31T14:43:42.910Z,75.71
2023-01-31T14:49:06.036Z,75.00
2023-01-31T14:55:04.619Z,75.02
2023-01-31T15:00:14.757Z,74.64
2023-01-31T15:05:24.614Z,75.04
2023-01-31T15:10:56.432Z,75.12
2023-01-31T15:16:00.722Z,75.09
2023-01-31T15:21:08.658Z,75.38
2023-01-31T15:26:17.698Z,75.73
2023-01-31T15:31:45.319Z,75.40
2023-01-31T15:36:52.656Z,74.85
2023-01-31T15:41:56.606Z,75.01
2023-01-31T15:47:01.511Z,74.95
2023-01-31T15:52:15.983Z,75.25
2023-01-31T15:57:22.726Z,75.22
2023-01-31T16:02:34.093Z,75.04
2023-01-31T16:07:38.002Z,75.15
2023-01-31T16:12:47.277Z,74.91
2023-01-31T16:17:51.829Z,75.29
2023-01-31T16:22:58.799Z,75.52
2023-01-31T16:28:09.465Z,75.38
2023-01-31T16:33:24.769Z,75.24
2023-01-31T16:38:28.951Z,75.38
2023-01-31T16:43:34.893Z,75.13
2023-01-31T16:48:42.624Z,75.07
2023-01-31T16:53:46.743Z,74.68
2023-01-31T16:58:56.656Z,74.69
2023-01-31T17:04:12.598Z,75.23
2023-01-31T17:09:22.535Z,75.17
2023-01-31T17:14:26.541Z,75.22
2023-01-31T17:19:33.171Z,74.89
2023-01-31T17:24:37.075Z,75.57
2023-01-31T17:29:40.902Z,74.42
2023-01-31T17:34:49.942Z,74.96
2023-01-31T17:39:53.857Z,74.86
2023-01-31T17:44:57.840Z,74.51
2023-01-31T17:50:01.714Z,75.16
2023-01-31T17:55:07.778Z,75.04
2023-01-31T18:00:13.862Z,74.79
2023-01-31T18:05:24.537Z,74.54
2023-01-31T18:10:34.136Z,74.38
2023-01-31T18:15:40.907Z,74.47
2023-01-31T18:20:49.220Z,74.35
2023-01-31T18:25:53.013Z,74.78
2023-01-31T18:31:06.029Z,74.21
2023-01-31T18:36:17.116Z,74.53
2023-01-31T18:41:22.571Z,74.91
2023-01-31T18:46:28.264Z,74.43
2023-01-31T18:51:32.130Z,74.64
2023-01-31T18:56:36.074Z,74.98
2023-01-31T19:01:43.593Z,74.79
2023-01-31T19:06:53.419Z,75.04
2023-01-31T19:11:57.299Z,74.37
2023-01-31T19:17:01.032Z,74.82
2023-01-31T19:22:05.066Z,74.88
2023-01-31T19:27:08.901Z,74.57
2023-01-31T19:32:12.654Z,74.40
2023-01-31T19:37:16.552Z,74.67
2023-01-31T19:42:22.283Z,74.98
2023-01-31T19:47:26.147Z,74.33
2023-01-31T19:52:34.061Z,74.70
2023-01-31T19:57:38.786Z,74.69
2023-01-31T20:02:43.680Z,74.64
2023-01-31T20:07:47.624Z,75.31
2023-01-31T20:12:51.557Z,74.89
2023-01-31T20:17:55.603Z,74.74
2023-01-31T20:22:59.456Z,74.00
2023-01-31T20:28:03.161Z,74.70
2023-01-31T20:33:07.414Z,74.66
2023-01-31T20:38:13.052Z,74.99
2023-01-31T20:43:17.199Z,74.60
2023-01-31T20:48:21.159Z,75.06
2023-01-31T20:53:30.042Z,74.82
2023-01-31T20:58:39.056Z,74.88
2023-01-31T21:03:42.996Z,74.97
2023-01-31T21:08:48.594Z,74.64
2023-01-31T21:13:52.483Z,74.99
2023-01-31T21:18:57.279Z,74.74
2023-01-31T21:24:01.172Z,74.05
2023-01-31T21:29:05.214Z,74.37
2023-01-31T21:34:09.332Z,75.28
2023-01-31T21:39:13.768Z,74.94
2023-01-31T21:44:17.984Z,74.80
2023-01-31T21:49:21.756Z,74.88
2023-01-31T21:54:25.874Z,74.89
2023-01-31T21:59:29.910Z,74.76
2023-01-31T22:04:33.800Z,74.74
2023-01-31T22:09:37.690Z,74.97
2023-01-31T22:14:41.421Z,74.16
2023-01-31T22:19:45.421Z,74.56
2023-01-31T22:24:49.327Z,74.55
2023-01-31T22:29:54.156Z,74.13
2023-01-31T22:34:59.465Z,74.46
2023-01-31T22:40:03.370Z,74.04
2023-01-31T22:45:08.889Z,74.50
2023-01-31T22:50:12.588Z,74.33
2023-01-31T22:55:16.621Z,74.20
2023-01-31T23:00:20.848Z,74.44
2023-01-31T23:05:25.824Z,74.58
2023-01-31T23:10:29.785Z,74.72
2023-01-31T23:15:34.622Z,74.74
2023-01-31T23:20:39.232Z,74.72
2023-01-31T23:25:42.968Z,74.94
2023-01-31T23:30:47.410Z,75.33
2023-01-31T23:35:52.142Z,74.69
2023-01-31T23:40:56.211Z,75.08
2023-01-31T23:46:01.137Z,75.04
2023-01-31T23:51:05.597Z,74.84
2023-01-31T23:56:09.560Z,75.31
